Latest Weather Observations for Minnipa RS

IDS60801

Issued at 10:31 am CDT Thursday 2 April 2015 (issued every 30 minutes, with the page automatically refreshed every 10 minutes)

About weather observations | Map of weather stations | Latest weather observations for SA | Other Formats
Station Details ID: 018195 Name: MINNIPA PIRSA Lat: -32.84 Lon: 135.15 Height: 165.0 m
Data from the previous 72 hours. | See also: Recent months at Minnipa RS
Date/Time
CDT
Temp
°C
App
Temp
°C
Dew
Point
Rel
Hum
%
Delta-T
°C
Wind Press
QNH
hPa
Press
MSL
hPa
Rain
since 9 am
mm
Dir
 
Spd
km/h
Gust
km/h
Spd
kts
Gust
kts
02/10:30am 15.2 9.2 10.2 72 2.6 SE 32 43 17 23 1024.4 - 0.0
02/10:00am 14.6 8.6 10.0 74 2.4 SE 32 41 17 22 1024.4 - 0.0
02/09:30am 14.3 9.3 10.9 80 1.8 SE 28 37 15 20 1024.4 - 0.0
02/09:00am 14.0 10.3 11.5 85 1.3 SE 22 30 12 16 1024.3 1023.9 2.0
02/08:30am 13.5 9.7 11.0 85 1.3 SE 22 32 12 17 1024.1 - 2.0
02/08:00am 13.3 9.8 11.0 86 1.2 SSE 20 28 11 15 1023.9 - 2.0
02/07:30am 13.1 9.7 11.2 88 1.0 SE 20 28 11 15 1023.4 - 2.0
02/07:00am 13.0 9.6 11.4 90 0.9 SSE 20 28 11 15 1023.2 - 2.0
02/06:30am 12.8 9.5 11.5 92 0.7 SSE 20 26 11 14 1023.0 - 2.0
02/06:00am 12.7 8.2 11.4 92 0.7 SSE 26 35 14 19 1022.6 1022.3 2.0
02/05:30am 13.1 9.6 12.2 94 0.5 SSE 22 32 12 17 1022.4 - 2.0
02/05:00am 13.2 9.0 12.3 94 0.5 SSE 26 35 14 19 1022.1 - 1.8
02/04:30am 13.3 9.9 12.4 94 0.5 SSE 22 33 12 18 1022.0 - 1.8
02/04:00am 13.4 9.9 12.3 93 0.6 SSE 22 30 12 16 1021.8 - 1.6
02/03:30am 13.6 10.6 12.5 93 0.6 SSE 20 32 11 17 1022.0 - 1.0
02/03:00am 14.0 10.7 12.9 93 0.6 S 22 30 12 16 1021.9 1021.6 0.8
02/02:30am 14.1 10.5 13.0 93 0.6 SSE 24 33 13 18 1021.7 - 0.8
02/02:00am 14.4 10.9 13.3 93 0.6 S 24 33 13 18 1021.8 - 0.8
02/01:30am 14.8 11.4 13.7 93 0.6 SSE 24 35 13 19 1021.8 - 0.8
02/01:00am 15.2 11.9 14.1 93 0.6 SSE 24 32 13 17 1021.8 - 0.8
02/12:30am 15.6 12.9 14.5 93 0.6 SSE 22 33 12 18 1021.6 - 0.6
02/12:00am 15.7 11.4 14.4 92 0.7 SSE 30 39 16 21 1021.5 1021.2 0.6
 
Date/Time
CDT
Temp
°C
App
Temp
°C
Dew
Point
Rel
Hum
%
Delta-T
°C
Wind Press
QNH
hPa
Press
MSL
hPa
Rain
since 9 am
mm
Dir
 
Spd
km/h
Gust
km/h
Spd
kts
Gust
kts
01/11:30pm 16.2 12.5 14.9 92 0.8 SSE 28 41 15 22 1021.4 - 0.4
01/11:00pm 17.0 14.7 15.7 92 0.8 S 22 33 12 18 1021.1 - 0.4
01/10:30pm 17.5 15.2 15.7 89 1.1 S 22 30 12 16 1020.8 - 0.0
01/10:00pm 17.6 15.3 15.8 89 1.1 S 22 28 12 15 1020.3 - 0.0
01/09:30pm 18.2 15.6 16.0 87 1.3 S 24 33 13 18 1019.9 - 0.0
01/09:00pm 20.0 19.4 16.6 81 2.1 SW 15 20 8 11 1019.2 1018.8 0.0
01/08:30pm 20.2 19.4 16.0 77 2.5 SW 15 22 8 12 1018.6 - 0.0
01/08:00pm 20.8 19.8 15.6 72 3.1 SW 15 19 8 10 1018.0 - 0.0
01/07:30pm 21.4 19.5 15.7 70 3.4 SW 20 28 11 15 1017.8 - 0.0
01/07:00pm 22.6 20.5 15.2 63 4.4 WSW 20 26 11 14 1017.5 - 0.0
01/06:30pm 24.0 22.0 15.0 57 5.4 W 19 24 10 13 1016.9 - 0.0
01/06:00pm 23.7 21.3 15.5 60 5.0 W 22 30 12 16 1016.7 1016.4 0.0
01/05:30pm 24.7 22.1 15.9 58 5.4 W 24 33 13 18 1016.5 - 0.0
01/05:00pm 25.1 22.4 15.7 56 5.7 W 24 33 13 18 1016.4 - 0.0
01/04:30pm 26.4 23.5 15.1 49 6.9 W 24 35 13 19 1016.2 - 0.0
01/04:00pm 26.7 23.3 13.8 45 7.7 W 24 35 13 19 1016.2 - 0.0
01/03:30pm 26.6 22.3 13.3 43 7.9 W 28 41 15 22 1016.3 - 0.0
01/03:00pm 27.2 24.3 12.8 41 8.5 WNW 20 30 11 16 1016.1 1015.8 0.0
01/02:30pm 27.6 23.8 12.4 39 8.9 WNW 24 30 13 16 1016.3 - 0.0
01/02:00pm 26.7 22.1 11.2 38 8.9 W 26 33 14 18 1016.6 - 0.0
01/01:30pm 28.5 24.4 10.2 32 10.4 WNW 22 35 12 19 1016.6 - 0.0
01/01:00pm 27.4 22.7 10.6 35 9.5 W 26 33 14 18 1016.8 - 0.0
01/12:30pm 27.9 22.8 9.2 31 10.4 W 26 35 14 19 1016.9 - 0.0
01/12:00pm 29.1 24.1 8.2 27 11.5 W 24 33 13 18 1017.1 1016.8 0.0
01/11:30am 28.2 23.3 6.9 26 11.4 W 22 28 12 15 1017.3 - 0.0
01/11:00am 27.2 22.2 3.7 22 11.8 WNW 19 22 10 12 1017.5 - 0.0
01/10:30am 26.1 20.9 2.7 22 11.5 NNW 19 24 10 13 1017.5 - 0.0
01/10:00am 24.6 20.1 2.1 23 10.8 N 15 20 8 11 1017.5 - 0.0
01/09:30am 24.6 19.7 2.1 23 10.8 NNW 17 20 9 11 1017.2 - 0.0
01/09:00am 23.8 18.9 2.0 24 10.4 N 17 20 9 11 1016.9 1016.6 0.0
01/08:30am 23.3 18.8 2.2 25 10.1 N 15 20 8 11 1016.9 - 0.0
01/08:00am 23.3 18.3 1.6 24 10.2 N 17 24 9 13 1016.6 - 0.0
01/07:30am 23.6 18.1 1.9 24 10.3 N 20 24 11 13 1016.4 - 0.0
01/07:00am 23.5 18.6 1.8 24 10.3 NNW 17 22 9 12 1016.5 - 0.0
01/06:30am 23.4 18.4 1.1 23 10.4 NNW 17 24 9 13 1016.5 - 0.0
01/06:00am 24.1 18.7 1.1 22 10.8 N 19 26 10 14 1016.1 1015.8 0.0
01/05:30am 24.4 18.7 0.7 21 11.1 N 20 28 11 15 1015.8 - 0.0
01/05:00am 24.6 18.7 1.5 22 11.0 N 22 30 12 16 1015.7 - 0.0
01/04:30am 24.8 18.5 1.7 22 11.0 N 24 30 13 16 1015.9 - 0.0
01/04:00am 23.9 18.5 1.5 23 10.6 N 19 22 10 12 1016.0 - 0.0
01/03:30am 23.9 18.3 1.5 23 10.6 N 20 24 11 13 1016.3 - 0.0
01/03:00am 24.4 17.8 1.9 23 10.7 NNE 26 32 14 17 1016.1 1015.8 0.0
01/02:30am 24.2 18.5 2.9 25 10.4 NNE 22 26 12 14 1016.9 - 0.0
01/02:00am 24.2 18.5 2.9 25 10.4 NNE 22 26 12 14 1017.2 - 0.0
01/01:30am 23.9 18.3 3.2 26 10.1 NNE 22 26 12 14 1017.6 - 0.0
01/01:00am 23.7 18.4 3.1 26 10.0 NNE 20 24 11 13 1018.0 - 0.0
01/12:30am 23.6 18.5 3.0 26 10.0 NNE 19 22 10 12 1018.4 - 0.0
01/12:00am 23.8 18.5 3.2 26 10.0 NNE 20 24 11 13 1018.8 1018.4 0.0
 
Date/Time
CDT
Temp
°C
App
Temp
°C
Dew
Point
Rel
Hum
%
Delta-T
°C
Wind Press
QNH
hPa
Press
MSL
hPa
Rain
since 9 am
mm
Dir
 
Spd
km/h
Gust
km/h
Spd
kts
Gust
kts
31/11:30pm 24.1 18.8 2.9 25 10.3 NNE 20 24 11 13 1018.9 - 0.0
31/11:00pm 23.9 18.5 2.7 25 10.3 NNE 20 24 11 13 1019.0 - 0.0
31/10:30pm 23.9 18.4 2.1 24 10.4 NNE 20 24 11 13 1018.9 - 0.0
31/10:00pm 24.2 18.8 2.4 24 10.5 NE 20 24 11 13 1018.9 - 0.0
31/09:30pm 24.8 19.7 2.9 24 10.7 NE 19 22 10 12 1018.8 - 0.0
31/09:00pm 25.5 20.3 2.2 22 11.3 NE 19 22 10 12 1018.8 1018.2 0.0
31/08:30pm 27.0 21.9 2.8 21 12.0 NE 19 24 10 13 1018.9 - 0.0
31/08:00pm 27.2 22.3 2.3 20 12.2 NNE 17 19 9 10 1018.5 - 0.0
31/07:30pm 28.2 23.9 0.9 17 13.2 N 13 17 7 9 1018.3 - 0.0
31/07:00pm 30.7 26.0 1.1 15 14.6 N 15 20 8 11 1018.1 - 0.0
31/06:30pm 31.2 26.2 1.5 15 14.8 N 17 37 9 20 1018.0 - 0.0
31/06:00pm 32.2 27.2 1.3 14 15.4 NNE 17 26 9 14 1018.0 1017.4 0.0
31/05:30pm 32.7 28.1 1.7 14 15.6 N 15 26 8 14 1018.1 - 0.0
31/05:00pm 33.1 28.4 1.0 13 16.0 NNE 15 24 8 13 1018.1 - 0.0
31/04:30pm 33.0 28.9 2.0 14 15.7 NNE 13 33 7 18 1018.4 - 0.0
31/04:00pm 33.1 28.6 2.0 14 15.8 NNE 15 30 8 16 1018.6 - 0.0
31/03:30pm 33.0 27.7 2.0 14 15.7 N 19 33 10 18 1018.7 - 0.0
31/03:00pm 32.6 28.0 1.7 14 15.5 ENE 15 26 8 14 1019.2 1018.6 0.0
31/02:30pm 32.6 28.6 2.6 15 15.3 NE 13 24 7 13 1019.7 - 0.0
31/02:00pm 32.0 26.9 3.1 16 14.8 NNE 19 30 10 16 1020.0 - 0.0
31/01:30pm 31.0 26.8 3.9 18 14.0 NNE 15 32 8 17 1020.6 - 0.0
31/01:00pm 31.7 26.7 4.5 18 14.3 N 20 28 11 15 1021.0 - 0.0
31/12:30pm 31.3 25.8 4.2 18 14.1 N 22 32 12 17 1021.4 - 0.0
31/12:00pm 30.2 24.3 4.0 19 13.5 N 24 32 13 17 1021.8 1021.3 0.0
31/11:30am 29.7 23.7 5.1 21 12.9 N 26 33 14 18 1022.3 - 0.0
31/11:00am 29.0 23.0 5.1 22 12.5 N 26 32 14 17 1022.5 - 0.0
31/10:30am 27.2 21.2 5.5 25 11.3 N 26 32 14 17 1022.7 - 0.0
31/10:00am 26.5 20.6 6.0 27 10.7 N 26 35 14 19 1022.9 - 0.0
31/09:30am 23.7 18.6 6.0 32 9.1 N 22 30 12 16 1023.1 - 0.0
31/09:00am 22.0 17.8 5.8 35 8.2 N 17 20 9 11 1022.9 1022.4 0.0
31/08:30am 20.5 16.2 6.8 41 7.0 N 19 22 10 12 1022.7 - 0.0
31/08:00am 19.1 14.6 6.9 45 6.2 NNE 20 26 11 14 1022.4 - 0.0
31/07:30am 17.3 12.8 7.1 51 5.1 NE 20 24 11 13 1022.1 - 0.0
31/07:00am 17.5 12.6 6.7 49 5.4 NE 22 24 12 13 1022.0 - 0.0
31/06:30am 17.2 12.6 6.7 50 5.2 NE 20 24 11 13 1021.9 - 0.0
31/06:00am 16.8 11.5 6.6 51 5.0 ENE 24 26 13 14 1021.8 1021.3 0.0
31/05:30am 16.8 11.8 6.6 51 5.1 ENE 22 26 12 14 1021.7 - 0.0
31/05:00am 17.1 12.1 6.3 49 5.3 ENE 22 26 12 14 1021.7 - 0.0
31/04:30am 17.2 12.2 6.4 49 5.4 ENE 22 24 12 13 1022.0 - 0.0
31/04:00am 17.6 12.6 6.5 48 5.5 ENE 22 24 12 13 1022.2 - 0.0
31/03:30am 18.3 13.3 6.5 46 5.9 ENE 22 24 12 13 1022.6 - 0.0
31/03:00am 18.2 13.7 7.0 48 5.6 ENE 20 24 11 13 1023.2 1022.7 0.0
31/02:30am 17.6 13.4 7.4 51 5.2 ENE 19 22 10 12 1023.2 - 0.0
31/02:00am 18.0 13.8 7.4 50 5.4 ENE 19 22 10 12 1023.1 - 0.0
31/01:30am 19.6 14.8 7.4 45 6.3 ENE 22 28 12 15 1023.0 - 0.0
31/01:00am 20.4 15.6 7.4 43 6.7 E 22 28 12 15 1023.4 - 0.0
31/12:30am 20.9 16.1 7.5 42 7.0 E 22 28 12 15 1023.5 - 0.0
31/12:00am 20.9 16.7 8.2 44 6.6 E 20 30 11 16 1023.7 1023.2 0.0
 
Date/Time
CDT
Temp
°C
App
Temp
°C
Dew
Point
Rel
Hum
%
Delta-T
°C
Wind Press
QNH
hPa
Press
MSL
hPa
Rain
since 9 am
mm
Dir
 
Spd
km/h
Gust
km/h
Spd
kts
Gust
kts
30/11:30pm 20.8 16.7 8.8 46 6.4 E 20 26 11 14 1023.7 - 0.0
30/11:00pm 21.1 17.3 9.0 46 6.5 ESE 19 26 10 14 1024.0 - 0.0
30/10:30pm 20.9 17.3 8.5 45 6.6 SE 17 19 9 10 1024.0 - 0.0
30/10:00pm 22.1 18.4 7.9 40 7.5 SE 17 20 9 11 1023.9 - 0.0
30/09:30pm 22.8 19.1 7.8 38 7.9 SE 17 22 9 12 1023.5 - 0.0
30/09:00pm 23.7 20.1 6.9 34 8.7 SSE 15 19 8 10 1023.2 1022.7 0.0
30/08:30pm 24.5 20.9 6.7 32 9.3 S 15 20 8 11 1022.9 - 0.0
30/08:00pm 25.5 21.5 6.7 30 9.9 SSW 17 20 9 11 1022.6 - 0.0
30/07:30pm 27.2 22.8 4.9 24 11.5 S 17 24 9 13 1022.2 - 0.0
30/07:00pm 28.9 24.2 5.1 22 12.4 S 19 22 10 12 1021.9 - 0.0
30/06:30pm 29.6 27.0 4.3 20 13.1 E 7 11 4 6 1021.8 - 0.0
30/06:00pm 30.1 26.8 4.7 20 13.2 SSE 11 17 6 9 1021.7 1021.2 0.0
30/05:30pm 30.5 26.9 5.0 20 13.4 S 13 17 7 9 1021.7 - 0.0
30/05:00pm 31.0 28.3 5.4 20 13.6 S 9 24 5 13 1021.6 - 0.0
30/04:30pm 30.4 28.1 4.9 20 13.4 SE 6 15 3 8 1021.7 - 0.0
30/04:00pm 31.3 27.1 5.7 20 13.7 WSW 17 33 9 18 1021.8 - 0.0
30/03:30pm 29.9 25.2 5.2 21 13.0 SSE 19 28 10 15 1021.9 - 0.0
30/03:00pm 30.6 26.4 5.8 21 13.2 W 17 28 9 15 1022.3 1021.8 0.0
30/02:30pm 29.4 27.2 6.1 23 12.4 W 7 17 4 9 1022.5 - 0.0
30/02:00pm 29.6 26.7 6.3 23 12.5 NNW 11 20 6 11 1023.0 - 0.0
30/01:30pm 29.0 26.1 6.4 24 12.1 W 11 20 6 11 1023.4 - 0.0
30/01:00pm 28.5 25.9 6.0 24 11.9 W 9 15 5 8 1023.9 - 0.0
30/12:30pm 28.7 26.1 6.1 24 12.0 N 9 17 5 9 1024.3 - 0.0
30/12:00pm 27.5 24.8 5.7 25 11.3 NW 9 15 5 8 1024.7 1024.1 0.0
30/11:30am 26.7 24.0 5.6 26 11.0 N 9 15 5 8 1024.9 - 0.0
30/11:00am 26.3 23.4 6.3 28 10.5 N 11 15 6 8 1025.1 - 0.0

Other Formats:

Comma delimited format used in spreadsheet applications
http://www.bom.gov.au/fwo/IDS60801/IDS60801.95662.axf

JavaScript Object Notation format (JSON) in row-major order
http://www.bom.gov.au/fwo/IDS60801/IDS60801.95662.json